sensor_id;sensor_type;location;lat;lon;timestamp;temperature;humidity
28654;DHT22;24320;56.980;24.336;2023-05-10T00:02:23;4.40;99.90
28654;DHT22;24320;56.980;24.336;2023-05-10T00:04:51;4.40;99.90
28654;DHT22;24320;56.980;24.336;2023-05-10T00:07:18;4.30;99.90
28654;DHT22;24320;56.980;24.336;2023-05-10T00:09:46;4.30;99.90
28654;DHT22;24320;56.980;24.336;2023-05-10T00:12:12;4.30;99.90
28654;DHT22;24320;56.980;24.336;2023-05-10T00:14:39;4.20;99.90
28654;DHT22;24320;56.980;24.336;2023-05-10T00:17:06;4.20;99.90
28654;DHT22;24320;56.980;24.336;2023-05-10T00:19:33;4.10;99.90
28654;DHT22;24320;56.980;24.336;2023-05-10T00:22:00;4.10;99.90
28654;DHT22;24320;56.980;24.336;2023-05-10T00:24:28;4.10;99.90
28654;DHT22;24320;56.980;24.336;2023-05-10T00:26:55;4.10;99.90
28654;DHT22;24320;56.980;24.336;2023-05-10T00:29:22;4.10;99.90
28654;DHT22;24320;56.980;24.336;2023-05-10T00:31:49;4.10;99.90
28654;DHT22;24320;56.980;24.336;2023-05-10T00:34:16;4.20;99.90
28654;DHT22;24320;56.980;24.336;2023-05-10T00:36:43;4.20;99.90
28654;DHT22;24320;56.980;24.336;2023-05-10T00:39:09;4.20;99.90
28654;DHT22;24320;56.980;24.336;2023-05-10T00:41:36;4.20;99.90
28654;DHT22;24320;56.980;24.336;2023-05-10T00:44:03;4.10;99.90
28654;DHT22;24320;56.980;24.336;2023-05-10T00:46:31;4.10;99.90
28654;DHT22;24320;56.980;24.336;2023-05-10T00:48:58;4.10;99.90
28654;DHT22;24320;56.980;24.336;2023-05-10T00:51:25;4.00;99.90
28654;DHT22;24320;56.980;24.336;2023-05-10T00:53:52;4.00;99.90
28654;DHT22;24320;56.980;24.336;2023-05-10T00:56:20;3.90;99.90
28654;DHT22;24320;56.980;24.336;2023-05-10T00:58:49;3.90;99.90
28654;DHT22;24320;56.980;24.336;2023-05-10T01:01:16;3.90;99.90
28654;DHT22;24320;56.980;24.336;2023-05-10T01:03:44;3.90;99.90
28654;DHT22;24320;56.980;24.336;2023-05-10T01:06:12;3.80;99.90
28654;DHT22;24320;56.980;24.336;2023-05-10T01:08:39;3.90;99.90
28654;DHT22;24320;56.980;24.336;2023-05-10T01:11:06;3.80;99.90
28654;DHT22;24320;56.980;24.336;2023-05-10T01:13:36;3.80;99.90
28654;DHT22;24320;56.980;24.336;2023-05-10T01:16:04;3.70;99.90
28654;DHT22;24320;56.980;24.336;2023-05-10T01:18:36;3.70;99.90
28654;DHT22;24320;56.980;24.336;2023-05-10T01:32:28;3.50;99.90
28654;DHT22;24320;56.980;24.336;2023-05-10T01:35:03;3.50;99.90
28654;DHT22;24320;56.980;24.336;2023-05-10T01:37:44;3.40;99.90
28654;DHT22;24320;56.980;24.336;2023-05-10T01:40:23;3.40;99.90
28654;DHT22;24320;56.980;24.336;2023-05-10T01:42:56;3.40;99.90
28654;DHT22;24320;56.980;24.336;2023-05-10T01:45:41;3.50;99.90
28654;DHT22;24320;56.980;24.336;2023-05-10T01:48:11;3.50;99.90
28654;DHT22;24320;56.980;24.336;2023-05-10T01:50:43;3.40;99.90
28654;DHT22;24320;56.980;24.336;2023-05-10T01:53:13;3.40;99.90
28654;DHT22;24320;56.980;24.336;2023-05-10T01:55:51;3.40;99.90
28654;DHT22;24320;56.980;24.336;2023-05-10T01:58:28;3.40;99.90
28654;DHT22;24320;56.980;24.336;2023-05-10T02:00:59;3.40;99.90
28654;DHT22;24320;56.980;24.336;2023-05-10T02:03:28;3.40;99.90
28654;DHT22;24320;56.980;24.336;2023-05-10T02:05:57;3.40;99.90
28654;DHT22;24320;56.980;24.336;2023-05-10T02:08:26;3.30;99.90
28654;DHT22;24320;56.980;24.336;2023-05-10T02:10:55;3.30;99.90
28654;DHT22;24320;56.980;24.336;2023-05-10T02:13:24;3.30;99.90
28654;DHT22;24320;56.980;24.336;2023-05-10T02:15:53;3.30;99.90
28654;DHT22;24320;56.980;24.336;2023-05-10T02:18:22;3.30;99.90
28654;DHT22;24320;56.980;24.336;2023-05-10T02:20:51;3.30;99.90
28654;DHT22;24320;56.980;24.336;2023-05-10T02:23:20;3.30;99.90
28654;DHT22;24320;56.980;24.336;2023-05-10T02:25:48;3.30;99.90
28654;DHT22;24320;56.980;24.336;2023-05-10T02:28:17;3.40;99.90
28654;DHT22;24320;56.980;24.336;2023-05-10T02:30:45;3.40;99.90
28654;DHT22;24320;56.980;24.336;2023-05-10T02:33:14;3.40;99.90
28654;DHT22;24320;56.980;24.336;2023-05-10T02:35:42;3.50;99.90
28654;DHT22;24320;56.980;24.336;2023-05-10T02:38:10;3.50;99.90
28654;DHT22;24320;56.980;24.336;2023-05-10T02:40:39;3.50;99.90
28654;DHT22;24320;56.980;24.336;2023-05-10T02:43:11;3.60;99.90
28654;DHT22;24320;56.980;24.336;2023-05-10T02:45:39;3.70;99.90
28654;DHT22;24320;56.980;24.336;2023-05-10T02:48:07;3.80;99.90
28654;DHT22;24320;56.980;24.336;2023-05-10T02:50:35;4.00;99.90
28654;DHT22;24320;56.980;24.336;2023-05-10T02:53:10;4.20;99.90
28654;DHT22;24320;56.980;24.336;2023-05-10T02:55:40;4.40;99.90
28654;DHT22;24320;56.980;24.336;2023-05-10T02:58:09;4.60;99.90
28654;DHT22;24320;56.980;24.336;2023-05-10T03:00:36;4.90;99.90
28654;DHT22;24320;56.980;24.336;2023-05-10T03:03:03;5.40;99.90
28654;DHT22;24320;56.980;24.336;2023-05-10T03:05:30;5.80;99.90
28654;DHT22;24320;56.980;24.336;2023-05-10T03:07:57;6.40;99.90
28654;DHT22;24320;56.980;24.336;2023-05-10T03:10:27;6.80;99.90
28654;DHT22;24320;56.980;24.336;2023-05-10T03:13:16;7.40;99.90
28654;DHT22;24320;56.980;24.336;2023-05-10T03:16:05;7.90;99.90
28654;DHT22;24320;56.980;24.336;2023-05-10T03:21:22;8.80;99.90
28654;DHT22;24320;56.980;24.336;2023-05-10T03:23:58;9.10;99.90
28654;DHT22;24320;56.980;24.336;2023-05-10T03:26:27;9.50;99.90
28654;DHT22;24320;56.980;24.336;2023-05-10T03:28:55;9.90;99.90
28654;DHT22;24320;56.980;24.336;2023-05-10T03:31:25;10.20;99.90
28654;DHT22;24320;56.980;24.336;2023-05-10T03:33:53;10.70;99.90
28654;DHT22;24320;56.980;24.336;2023-05-10T03:36:20;11.10;99.90
28654;DHT22;24320;56.980;24.336;2023-05-10T03:38:47;11.60;99.90
28654;DHT22;24320;56.980;24.336;2023-05-10T03:41:14;12.20;99.90
28654;DHT22;24320;56.980;24.336;2023-05-10T03:43:41;12.80;99.90
28654;DHT22;24320;56.980;24.336;2023-05-10T03:46:08;13.40;99.90
28654;DHT22;24320;56.980;24.336;2023-05-10T03:48:35;13.80;96.60
28654;DHT22;24320;56.980;24.336;2023-05-10T03:51:02;14.10;93.30
28654;DHT22;24320;56.980;24.336;2023-05-10T03:53:29;14.20;91.60
28654;DHT22;24320;56.980;24.336;2023-05-10T03:55:56;14.20;90.70
28654;DHT22;24320;56.980;24.336;2023-05-10T03:58:23;14.20;93.30
28654;DHT22;24320;56.980;24.336;2023-05-10T04:00:51;14.30;92.00
28654;DHT22;24320;56.980;24.336;2023-05-10T04:03:18;14.40;91.30
28654;DHT22;24320;56.980;24.336;2023-05-10T04:05:45;14.70;91.20
28654;DHT22;24320;56.980;24.336;2023-05-10T04:08:12;14.90;92.00
28654;DHT22;24320;56.980;24.336;2023-05-10T04:10:39;15.10;89.10
28654;DHT22;24320;56.980;24.336;2023-05-10T04:13:06;15.30;84.80
28654;DHT22;24320;56.980;24.336;2023-05-10T04:15:33;15.50;84.10
28654;DHT22;24320;56.980;24.336;2023-05-10T04:18:00;15.60;82.90
28654;DHT22;24320;56.980;24.336;2023-05-10T04:20:27;15.80;80.60
28654;DHT22;24320;56.980;24.336;2023-05-10T04:22:54;16.10;82.00
28654;DHT22;24320;56.980;24.336;2023-05-10T04:25:21;16.40;78.20
28654;DHT22;24320;56.980;24.336;2023-05-10T04:27:48;16.60;78.10
28654;DHT22;24320;56.980;24.336;2023-05-10T04:30:15;16.80;76.40
28654;DHT22;24320;56.980;24.336;2023-05-10T04:32:43;17.10;77.00
28654;DHT22;24320;56.980;24.336;2023-05-10T04:35:10;17.40;74.60
28654;DHT22;24320;56.980;24.336;2023-05-10T04:37:37;17.80;71.60
28654;DHT22;24320;56.980;24.336;2023-05-10T04:40:05;18.10;71.50
28654;DHT22;24320;56.980;24.336;2023-05-10T04:42:32;18.10;68.10
28654;DHT22;24320;56.980;24.336;2023-05-10T04:44:59;18.00;67.10
28654;DHT22;24320;56.980;24.336;2023-05-10T04:47:26;18.20;67.20
28654;DHT22;24320;56.980;24.336;2023-05-10T04:49:53;18.40;68.00
28654;DHT22;24320;56.980;24.336;2023-05-10T04:52:20;18.50;67.60
28654;DHT22;24320;56.980;24.336;2023-05-10T04:54:47;18.70;67.30
28654;DHT22;24320;56.980;24.336;2023-05-10T04:57:14;19.00;67.60
28654;DHT22;24320;56.980;24.336;2023-05-10T04:59:41;19.50;64.80
28654;DHT22;24320;56.980;24.336;2023-05-10T05:02:09;19.60;61.70
28654;DHT22;24320;56.980;24.336;2023-05-10T05:04:36;19.80;60.70
28654;DHT22;24320;56.980;24.336;2023-05-10T05:07:03;19.80;59.90
28654;DHT22;24320;56.980;24.336;2023-05-10T05:09:30;19.90;60.10
28654;DHT22;24320;56.980;24.336;2023-05-10T05:11:58;20.10;58.80
28654;DHT22;24320;56.980;24.336;2023-05-10T05:14:26;20.40;61.10
28654;DHT22;24320;56.980;24.336;2023-05-10T05:16:53;20.70;60.20
28654;DHT22;24320;56.980;24.336;2023-05-10T05:19:20;20.60;56.80
28654;DHT22;24320;56.980;24.336;2023-05-10T05:21:47;20.50;58.70
28654;DHT22;24320;56.980;24.336;2023-05-10T05:24:14;20.50;57.80
28654;DHT22;24320;56.980;24.336;2023-05-10T05:26:41;20.70;58.40
28654;DHT22;24320;56.980;24.336;2023-05-10T05:29:08;21.10;57.30
28654;DHT22;24320;56.980;24.336;2023-05-10T05:31:35;21.30;55.10
28654;DHT22;24320;56.980;24.336;2023-05-10T05:34:02;21.40;55.40
28654;DHT22;24320;56.980;24.336;2023-05-10T05:36:29;21.60;54.40
28654;DHT22;24320;56.980;24.336;2023-05-10T05:38:58;21.90;55.80
28654;DHT22;24320;56.980;24.336;2023-05-10T05:41:25;22.10;55.00
28654;DHT22;24320;56.980;24.336;2023-05-10T05:43:52;22.30;55.00
28654;DHT22;24320;56.980;24.336;2023-05-10T05:46:19;22.50;53.50
28654;DHT22;24320;56.980;24.336;2023-05-10T05:48:47;22.70;51.80
28654;DHT22;24320;56.980;24.336;2023-05-10T05:51:14;22.90;53.00
28654;DHT22;24320;56.980;24.336;2023-05-10T05:53:41;23.10;51.70
28654;DHT22;24320;56.980;24.336;2023-05-10T05:56:08;23.10;49.80
28654;DHT22;24320;56.980;24.336;2023-05-10T05:58:36;23.30;52.00
28654;DHT22;24320;56.980;24.336;2023-05-10T06:01:03;23.50;52.10
28654;DHT22;24320;56.980;24.336;2023-05-10T06:03:30;23.50;50.20
28654;DHT22;24320;56.980;24.336;2023-05-10T06:05:57;23.70;52.00
28654;DHT22;24320;56.980;24.336;2023-05-10T06:08:24;23.90;52.30
28654;DHT22;24320;56.980;24.336;2023-05-10T06:10:51;23.80;50.50
28654;DHT22;24320;56.980;24.336;2023-05-10T06:13:18;23.80;49.90
28654;DHT22;24320;56.980;24.336;2023-05-10T06:15:45;23.90;49.20
28654;DHT22;24320;56.980;24.336;2023-05-10T06:18:12;23.80;47.70
28654;DHT22;24320;56.980;24.336;2023-05-10T06:20:41;23.60;47.50
28654;DHT22;24320;56.980;24.336;2023-05-10T06:23:09;23.40;49.70
28654;DHT22;24320;56.980;24.336;2023-05-10T06:25:36;23.40;47.40
28654;DHT22;24320;56.980;24.336;2023-05-10T06:28:03;23.30;48.20
28654;DHT22;24320;56.980;24.336;2023-05-10T06:30:30;23.20;46.40
28654;DHT22;24320;56.980;24.336;2023-05-10T06:32:57;23.10;46.70
28654;DHT22;24320;56.980;24.336;2023-05-10T06:35:24;23.10;47.70
28654;DHT22;24320;56.980;24.336;2023-05-10T06:37:52;23.20;47.50
28654;DHT22;24320;56.980;24.336;2023-05-10T06:40:19;23.30;46.80
28654;DHT22;24320;56.980;24.336;2023-05-10T06:42:47;23.40;46.50
28654;DHT22;24320;56.980;24.336;2023-05-10T06:45:15;23.50;45.90
28654;DHT22;24320;56.980;24.336;2023-05-10T06:47:44;23.60;47.90
28654;DHT22;24320;56.980;24.336;2023-05-10T06:50:11;23.80;45.60
28654;DHT22;24320;56.980;24.336;2023-05-10T06:52:38;23.60;46.40
28654;DHT22;24320;56.980;24.336;2023-05-10T06:55:06;23.60;47.30
28654;DHT22;24320;56.980;24.336;2023-05-10T06:57:33;23.70;47.50
28654;DHT22;24320;56.980;24.336;2023-05-10T07:00:00;23.70;44.10
28654;DHT22;24320;56.980;24.336;2023-05-10T07:02:27;23.50;44.70
28654;DHT22;24320;56.980;24.336;2023-05-10T07:04:54;23.40;41.80
28654;DHT22;24320;56.980;24.336;2023-05-10T07:07:22;23.60;44.20
28654;DHT22;24320;56.980;24.336;2023-05-10T07:09:48;23.90;42.80
28654;DHT22;24320;56.980;24.336;2023-05-10T07:12:16;24.10;43.60
28654;DHT22;24320;56.980;24.336;2023-05-10T07:14:44;24.50;41.30
28654;DHT22;24320;56.980;24.336;2023-05-10T07:17:11;24.60;40.60
28654;DHT22;24320;56.980;24.336;2023-05-10T07:19:38;24.50;40.80
28654;DHT22;24320;56.980;24.336;2023-05-10T07:22:05;24.50;39.70
28654;DHT22;24320;56.980;24.336;2023-05-10T07:24:33;24.40;41.30
28654;DHT22;24320;56.980;24.336;2023-05-10T07:27:00;24.50;41.10
28654;DHT22;24320;56.980;24.336;2023-05-10T07:29:27;24.90;40.40
28654;DHT22;24320;56.980;24.336;2023-05-10T07:31:54;25.00;39.50
28654;DHT22;24320;56.980;24.336;2023-05-10T07:34:24;24.90;38.50
28654;DHT22;24320;56.980;24.336;2023-05-10T07:36:52;24.90;38.40
28654;DHT22;24320;56.980;24.336;2023-05-10T07:39:19;24.90;40.10
28654;DHT22;24320;56.980;24.336;2023-05-10T07:41:54;24.90;37.20
28654;DHT22;24320;56.980;24.336;2023-05-10T07:44:21;24.50;36.10
28654;DHT22;24320;56.980;24.336;2023-05-10T07:46:49;24.00;38.90
28654;DHT22;24320;56.980;24.336;2023-05-10T07:49:16;23.70;41.60
28654;DHT22;24320;56.980;24.336;2023-05-10T07:51:43;23.70;43.40
28654;DHT22;24320;56.980;24.336;2023-05-10T07:54:10;23.80;42.70
28654;DHT22;24320;56.980;24.336;2023-05-10T07:56:37;23.70;37.50
28654;DHT22;24320;56.980;24.336;2023-05-10T07:59:05;23.60;39.50
28654;DHT22;24320;56.980;24.336;2023-05-10T08:01:35;23.70;40.60
28654;DHT22;24320;56.980;24.336;2023-05-10T08:04:02;23.80;38.30
28654;DHT22;24320;56.980;24.336;2023-05-10T08:06:30;23.90;40.30
28654;DHT22;24320;56.980;24.336;2023-05-10T08:08:57;23.90;42.70
28654;DHT22;24320;56.980;24.336;2023-05-10T08:11:24;23.80;42.10
28654;DHT22;24320;56.980;24.336;2023-05-10T08:13:52;23.80;40.00
28654;DHT22;24320;56.980;24.336;2023-05-10T08:16:20;23.60;40.90
28654;DHT22;24320;56.980;24.336;2023-05-10T08:18:47;23.30;38.70
28654;DHT22;24320;56.980;24.336;2023-05-10T08:21:15;22.90;38.80
28654;DHT22;24320;56.980;24.336;2023-05-10T08:23:43;22.50;38.50
28654;DHT22;24320;56.980;24.336;2023-05-10T08:26:11;22.10;37.80
28654;DHT22;24320;56.980;24.336;2023-05-10T08:28:38;21.90;42.20
28654;DHT22;24320;56.980;24.336;2023-05-10T08:31:05;22.00;42.70
28654;DHT22;24320;56.980;24.336;2023-05-10T08:33:32;22.10;43.40
28654;DHT22;24320;56.980;24.336;2023-05-10T08:35:59;22.00;39.20
28654;DHT22;24320;56.980;24.336;2023-05-10T08:38:26;21.90;39.20
28654;DHT22;24320;56.980;24.336;2023-05-10T08:40:54;21.90;41.20
28654;DHT22;24320;56.980;24.336;2023-05-10T08:43:29;21.90;39.40
28654;DHT22;24320;56.980;24.336;2023-05-10T08:46:00;21.90;38.90
28654;DHT22;24320;56.980;24.336;2023-05-10T08:48:29;21.70;43.30
28654;DHT22;24320;56.980;24.336;2023-05-10T08:50:58;21.70;40.60
28654;DHT22;24320;56.980;24.336;2023-05-10T08:53:29;21.70;41.10
28654;DHT22;24320;56.980;24.336;2023-05-10T08:55:57;21.80;45.00
28654;DHT22;24320;56.980;24.336;2023-05-10T08:58:25;21.80;43.80
28654;DHT22;24320;56.980;24.336;2023-05-10T09:00:52;21.90;38.20
28654;DHT22;24320;56.980;24.336;2023-05-10T09:03:20;21.80;41.90
28654;DHT22;24320;56.980;24.336;2023-05-10T09:05:48;21.80;42.00
28654;DHT22;24320;56.980;24.336;2023-05-10T09:08:15;21.90;42.10
28654;DHT22;24320;56.980;24.336;2023-05-10T09:10:45;21.80;40.50
28654;DHT22;24320;56.980;24.336;2023-05-10T09:13:14;21.70;44.90
28654;DHT22;24320;56.980;24.336;2023-05-10T09:15:45;21.70;43.50
28654;DHT22;24320;56.980;24.336;2023-05-10T09:18:12;21.80;43.00
28654;DHT22;24320;56.980;24.336;2023-05-10T09:20:40;21.90;44.40
28654;DHT22;24320;56.980;24.336;2023-05-10T09:23:07;21.90;41.40
28654;DHT22;24320;56.980;24.336;2023-05-10T09:25:34;21.90;43.70
28654;DHT22;24320;56.980;24.336;2023-05-10T09:28:01;21.80;42.80
28654;DHT22;24320;56.980;24.336;2023-05-10T09:30:30;21.80;40.60
28654;DHT22;24320;56.980;24.336;2023-05-10T09:32:59;21.70;43.50
28654;DHT22;24320;56.980;24.336;2023-05-10T09:35:28;21.80;42.70
28654;DHT22;24320;56.980;24.336;2023-05-10T09:38:02;21.70;42.70
28654;DHT22;24320;56.980;24.336;2023-05-10T09:40:29;21.60;38.80
28654;DHT22;24320;56.980;24.336;2023-05-10T09:43:06;21.40;38.40
28654;DHT22;24320;56.980;24.336;2023-05-10T09:45:35;21.10;39.00
28654;DHT22;24320;56.980;24.336;2023-05-10T09:48:04;21.00;42.70
28654;DHT22;24320;56.980;24.336;2023-05-10T09:50:31;21.00;41.40
28654;DHT22;24320;56.980;24.336;2023-05-10T09:53:00;21.10;43.40
28654;DHT22;24320;56.980;24.336;2023-05-10T09:55:46;21.10;40.60
28654;DHT22;24320;56.980;24.336;2023-05-10T09:58:13;20.90;38.70
28654;DHT22;24320;56.980;24.336;2023-05-10T10:00:43;20.70;38.90
28654;DHT22;24320;56.980;24.336;2023-05-10T10:03:18;20.70;40.20
28654;DHT22;24320;56.980;24.336;2023-05-10T10:05:47;20.70;40.00
28654;DHT22;24320;56.980;24.336;2023-05-10T10:08:14;20.70;40.30
28654;DHT22;24320;56.980;24.336;2023-05-10T10:10:42;20.70;40.20
28654;DHT22;24320;56.980;24.336;2023-05-10T10:13:12;20.70;42.30
28654;DHT22;24320;56.980;24.336;2023-05-10T10:15:39;20.90;44.10
28654;DHT22;24320;56.980;24.336;2023-05-10T10:18:07;21.10;43.40
28654;DHT22;24320;56.980;24.336;2023-05-10T10:20:39;21.20;45.60
28654;DHT22;24320;56.980;24.336;2023-05-10T10:23:06;21.30;41.30
28654;DHT22;24320;56.980;24.336;2023-05-10T10:25:34;21.30;38.30
28654;DHT22;24320;56.980;24.336;2023-05-10T10:28:22;21.20;41.50
28654;DHT22;24320;56.980;24.336;2023-05-10T10:30:55;21.20;39.50
28654;DHT22;24320;56.980;24.336;2023-05-10T10:33:51;21.10;41.50
28654;DHT22;24320;56.980;24.336;2023-05-10T10:36:21;21.10;37.90
28654;DHT22;24320;56.980;24.336;2023-05-10T10:41:35;20.90;40.60
28654;DHT22;24320;56.980;24.336;2023-05-10T10:57:25;21.50;40.40
28654;DHT22;24320;56.980;24.336;2023-05-10T11:00:26;21.60;42.30
28654;DHT22;24320;56.980;24.336;2023-05-10T11:05:39;21.50;40.70
28654;DHT22;24320;56.980;24.336;2023-05-10T11:08:20;21.30;40.30
28654;DHT22;24320;56.980;24.336;2023-05-10T11:11:02;21.30;42.70
28654;DHT22;24320;56.980;24.336;2023-05-10T11:13:42;21.30;39.20
28654;DHT22;24320;56.980;24.336;2023-05-10T11:16:45;21.50;40.40
28654;DHT22;24320;56.980;24.336;2023-05-10T11:19:08;21.50;39.80
28654;DHT22;24320;56.980;24.336;2023-05-10T11:24:33;21.40;36.20
28654;DHT22;24320;56.980;24.336;2023-05-10T11:27:00;21.20;39.60
28654;DHT22;24320;56.980;24.336;2023-05-10T11:29:27;21.20;38.70
28654;DHT22;24320;56.980;24.336;2023-05-10T11:31:58;21.10;38.90
28654;DHT22;24320;56.980;24.336;2023-05-10T11:34:31;21.10;40.10
28654;DHT22;24320;56.980;24.336;2023-05-10T11:37:01;21.20;38.30
28654;DHT22;24320;56.980;24.336;2023-05-10T11:39:30;21.20;42.10
28654;DHT22;24320;56.980;24.336;2023-05-10T11:41:58;21.20;40.40
28654;DHT22;24320;56.980;24.336;2023-05-10T11:44:32;21.10;41.80
28654;DHT22;24320;56.980;24.336;2023-05-10T11:47:00;21.10;41.10
28654;DHT22;24320;56.980;24.336;2023-05-10T11:49:27;21.00;39.50
28654;DHT22;24320;56.980;24.336;2023-05-10T11:52:04;21.00;37.70
28654;DHT22;24320;56.980;24.336;2023-05-10T11:54:32;21.00;36.90
28654;DHT22;24320;56.980;24.336;2023-05-10T11:57:01;21.00;37.40
28654;DHT22;24320;56.980;24.336;2023-05-10T11:59:28;21.10;40.20
28654;DHT22;24320;56.980;24.336;2023-05-10T12:01:56;21.20;42.00
28654;DHT22;24320;56.980;24.336;2023-05-10T12:04:23;21.30;39.60
28654;DHT22;24320;56.980;24.336;2023-05-10T12:06:50;21.50;41.70
28654;DHT22;24320;56.980;24.336;2023-05-10T12:09:17;21.50;40.60
28654;DHT22;24320;56.980;24.336;2023-05-10T12:11:57;21.50;38.70
28654;DHT22;24320;56.980;24.336;2023-05-10T12:14:24;21.30;41.30
28654;DHT22;24320;56.980;24.336;2023-05-10T12:16:51;21.30;41.50
28654;DHT22;24320;56.980;24.336;2023-05-10T12:19:19;21.30;41.20
28654;DHT22;24320;56.980;24.336;2023-05-10T12:21:47;21.30;38.60
28654;DHT22;24320;56.980;24.336;2023-05-10T12:24:14;21.40;40.30
28654;DHT22;24320;56.980;24.336;2023-05-10T12:26:47;21.50;41.10
28654;DHT22;24320;56.980;24.336;2023-05-10T12:29:32;21.40;40.10
28654;DHT22;24320;56.980;24.336;2023-05-10T12:32:00;21.40;37.90
28654;DHT22;24320;56.980;24.336;2023-05-10T12:34:31;21.50;36.30
28654;DHT22;24320;56.980;24.336;2023-05-10T12:36:58;21.50;37.10
28654;DHT22;24320;56.980;24.336;2023-05-10T12:39:25;21.40;39.50
28654;DHT22;24320;56.980;24.336;2023-05-10T12:41:52;21.50;40.80
28654;DHT22;24320;56.980;24.336;2023-05-10T12:44:19;21.60;40.40
28654;DHT22;24320;56.980;24.336;2023-05-10T12:46:46;21.50;41.30
28654;DHT22;24320;56.980;24.336;2023-05-10T12:49:14;21.50;38.20
28654;DHT22;24320;56.980;24.336;2023-05-10T12:51:41;21.50;35.20
28654;DHT22;24320;56.980;24.336;2023-05-10T12:54:08;21.50;34.30
28654;DHT22;24320;56.980;24.336;2023-05-10T12:56:35;21.40;36.50
28654;DHT22;24320;56.980;24.336;2023-05-10T12:59:02;21.40;36.10
28654;DHT22;24320;56.980;24.336;2023-05-10T13:01:29;21.40;35.80
28654;DHT22;24320;56.980;24.336;2023-05-10T13:03:56;21.30;34.80
28654;DHT22;24320;56.980;24.336;2023-05-10T13:06:23;21.20;35.70
28654;DHT22;24320;56.980;24.336;2023-05-10T13:08:49;21.20;37.20
28654;DHT22;24320;56.980;24.336;2023-05-10T13:11:17;21.20;39.20
28654;DHT22;24320;56.980;24.336;2023-05-10T13:13:44;21.30;38.40
28654;DHT22;24320;56.980;24.336;2023-05-10T13:16:11;21.50;41.30
28654;DHT22;24320;56.980;24.336;2023-05-10T13:18:38;21.50;41.30
28654;DHT22;24320;56.980;24.336;2023-05-10T13:21:05;21.60;40.00
28654;DHT22;24320;56.980;24.336;2023-05-10T13:23:32;21.50;39.50
28654;DHT22;24320;56.980;24.336;2023-05-10T13:25:59;21.40;39.90
28654;DHT22;24320;56.980;24.336;2023-05-10T13:28:26;21.50;39.80
28654;DHT22;24320;56.980;24.336;2023-05-10T13:30:53;21.50;40.10
28654;DHT22;24320;56.980;24.336;2023-05-10T13:33:20;21.50;40.90
28654;DHT22;24320;56.980;24.336;2023-05-10T13:35:47;21.40;39.80
28654;DHT22;24320;56.980;24.336;2023-05-10T13:38:14;21.40;39.60
28654;DHT22;24320;56.980;24.336;2023-05-10T13:40:41;21.40;41.50
28654;DHT22;24320;56.980;24.336;2023-05-10T13:43:08;21.40;41.20
28654;DHT22;24320;56.980;24.336;2023-05-10T13:45:35;21.50;40.60
28654;DHT22;24320;56.980;24.336;2023-05-10T13:48:02;21.50;39.40
28654;DHT22;24320;56.980;24.336;2023-05-10T13:50:30;21.50;39.50
28654;DHT22;24320;56.980;24.336;2023-05-10T13:52:57;21.50;40.10
28654;DHT22;24320;56.980;24.336;2023-05-10T13:55:24;21.50;38.50
28654;DHT22;24320;56.980;24.336;2023-05-10T13:57:51;21.40;37.00
28654;DHT22;24320;56.980;24.336;2023-05-10T14:00:18;21.30;37.00
28654;DHT22;24320;56.980;24.336;2023-05-10T14:02:45;21.30;37.80
28654;DHT22;24320;56.980;24.336;2023-05-10T14:05:12;21.20;38.50
28654;DHT22;24320;56.980;24.336;2023-05-10T14:07:39;21.20;39.10
28654;DHT22;24320;56.980;24.336;2023-05-10T14:10:06;21.30;39.40
28654;DHT22;24320;56.980;24.336;2023-05-10T14:12:33;21.30;39.40
28654;DHT22;24320;56.980;24.336;2023-05-10T14:15:00;21.30;41.10
28654;DHT22;24320;56.980;24.336;2023-05-10T14:17:27;21.40;38.00
28654;DHT22;24320;56.980;24.336;2023-05-10T14:19:55;21.60;37.50
28654;DHT22;24320;56.980;24.336;2023-05-10T14:22:22;21.60;40.40
28654;DHT22;24320;56.980;24.336;2023-05-10T14:24:49;21.60;40.30
28654;DHT22;24320;56.980;24.336;2023-05-10T14:27:16;21.60;39.80
28654;DHT22;24320;56.980;24.336;2023-05-10T14:29:43;21.60;38.20
28654;DHT22;24320;56.980;24.336;2023-05-10T14:32:10;21.60;38.90
28654;DHT22;24320;56.980;24.336;2023-05-10T14:34:37;21.70;38.10
28654;DHT22;24320;56.980;24.336;2023-05-10T14:37:04;21.60;38.00
28654;DHT22;24320;56.980;24.336;2023-05-10T14:39:31;21.50;37.90
28654;DHT22;24320;56.980;24.336;2023-05-10T14:41:59;21.40;37.30
28654;DHT22;24320;56.980;24.336;2023-05-10T14:44:26;21.30;38.00
28654;DHT22;24320;56.980;24.336;2023-05-10T14:46:53;21.30;38.60
28654;DHT22;24320;56.980;24.336;2023-05-10T14:49:20;21.30;39.90
28654;DHT22;24320;56.980;24.336;2023-05-10T14:51:49;21.30;38.50
28654;DHT22;24320;56.980;24.336;2023-05-10T14:54:16;21.20;38.50
28654;DHT22;24320;56.980;24.336;2023-05-10T14:56:43;21.20;38.50
28654;DHT22;24320;56.980;24.336;2023-05-10T14:59:11;21.10;38.20
28654;DHT22;24320;56.980;24.336;2023-05-10T15:01:38;21.10;38.00
28654;DHT22;24320;56.980;24.336;2023-05-10T15:04:08;21.00;38.00
28654;DHT22;24320;56.980;24.336;2023-05-10T15:06:36;20.90;38.30
28654;DHT22;24320;56.980;24.336;2023-05-10T15:09:03;20.70;39.20
28654;DHT22;24320;56.980;24.336;2023-05-10T15:11:30;20.50;39.50
28654;DHT22;24320;56.980;24.336;2023-05-10T15:13:57;20.40;39.40
28654;DHT22;24320;56.980;24.336;2023-05-10T15:16:24;20.20;40.40
28654;DHT22;24320;56.980;24.336;2023-05-10T15:18:52;20.10;39.80
28654;DHT22;24320;56.980;24.336;2023-05-10T15:21:19;20.10;40.00
28654;DHT22;24320;56.980;24.336;2023-05-10T15:23:46;20.10;40.30
28654;DHT22;24320;56.980;24.336;2023-05-10T15:26:12;20.20;41.60
28654;DHT22;24320;56.980;24.336;2023-05-10T15:28:39;20.20;39.60
28654;DHT22;24320;56.980;24.336;2023-05-10T15:31:07;20.20;39.60
28654;DHT22;24320;56.980;24.336;2023-05-10T15:33:34;20.20;40.10
28654;DHT22;24320;56.980;24.336;2023-05-10T15:36:00;20.20;39.70
28654;DHT22;24320;56.980;24.336;2023-05-10T15:38:27;20.10;40.20
28654;DHT22;24320;56.980;24.336;2023-05-10T15:40:58;20.00;40.70
28654;DHT22;24320;56.980;24.336;2023-05-10T15:43:24;20.00;39.90
28654;DHT22;24320;56.980;24.336;2023-05-10T15:45:51;19.90;39.60
28654;DHT22;24320;56.980;24.336;2023-05-10T15:48:18;19.80;40.30
28654;DHT22;24320;56.980;24.336;2023-05-10T15:50:45;19.80;40.20
28654;DHT22;24320;56.980;24.336;2023-05-10T15:53:12;19.70;41.60
28654;DHT22;24320;56.980;24.336;2023-05-10T15:55:39;19.70;42.00
28654;DHT22;24320;56.980;24.336;2023-05-10T15:58:06;19.60;42.60
28654;DHT22;24320;56.980;24.336;2023-05-10T16:00:34;19.60;42.00
28654;DHT22;24320;56.980;24.336;2023-05-10T16:03:01;19.60;41.60
28654;DHT22;24320;56.980;24.336;2023-05-10T16:05:29;19.70;41.10